Time;durP1;ratioP1;P1;durP2;ratioP2;P2;SDS_P1;SDS_P2;PMS_P1;PMS_P2;Temp;Humidity;BMP_temperature;BMP_pressure;BME280_temperature;BME280_humidity;BME280_pressure;Samples;Min_cycle;Max_cycle;Signal;HPM_P1;HPM_P2
2022/01/30 00:02:16;;;;;;;6.10;4.50;;;7.00;99.90;;;;;;5094007;28;20035;-77
2022/01/30 00:04:43;;;;;;;5.28;4.78;;;7.00;99.90;;;;;;5094813;28;20035;-76
2022/01/30 00:07:09;;;;;;;8.45;6.25;;;7.00;99.90;;;;;;5094991;28;20385;-83
2022/01/30 00:09:35;;;;;;;5.35;4.85;;;7.00;99.90;;;;;;5094740;28;20032;-76
2022/01/30 00:12:04;;;;;;;6.05;5.55;;;7.00;99.90;;;;;;5094880;28;20028;-77
2022/01/30 00:14:34;;;;;;;5.85;4.90;;;7.10;99.90;;;;;;5094185;28;20591;-77
2022/01/30 00:17:10;;;;;;;6.50;5.32;;;7.10;99.90;;;;;;5096018;28;20051;-76
2022/01/30 00:19:45;;;;;;;6.20;5.63;;;7.10;99.90;;;;;;5094429;28;20036;-76
2022/01/30 00:22:25;;;;;;;7.10;6.30;;;7.10;99.90;;;;;;5094231;28;20040;-82
2022/01/30 00:24:59;;;;;;;8.30;5.88;;;7.20;99.90;;;;;;5076122;28;20500;-77
2022/01/30 00:27:32;;;;;;;7.90;6.70;;;7.10;99.90;;;;;;5093891;28;20036;-77
2022/01/30 00:29:59;;;;;;;7.43;6.60;;;7.10;99.90;;;;;;5076441;28;20405;-77
2022/01/30 00:32:25;;;;;;;6.93;6.38;;;7.10;99.90;;;;;;5075806;28;20028;-78
2022/01/30 00:34:51;;;;;;;7.72;7.03;;;7.10;99.90;;;;;;5094476;28;20039;-76
2022/01/30 00:37:18;;;;;;;6.45;5.95;;;7.00;99.90;;;;;;5093479;28;20039;-77
2022/01/30 00:39:44;;;;;;;6.95;6.32;;;6.90;99.90;;;;;;5076222;28;20055;-77
2022/01/30 00:42:10;;;;;;;7.25;6.60;;;6.90;99.90;;;;;;5094651;28;20043;-77
2022/01/30 00:44:37;;;;;;;7.30;5.97;;;6.90;99.90;;;;;;5094336;28;20473;-77
2022/01/30 00:47:04;;;;;;;6.90;6.20;;;6.90;99.90;;;;;;5093894;28;20477;-77
2022/01/30 00:49:31;;;;;;;5.95;4.60;;;7.00;99.90;;;;;;5074659;28;20044;-76
2022/01/30 00:51:57;;;;;;;4.97;4.57;;;7.00;99.90;;;;;;5094356;28;20036;-77
2022/01/30 00:54:24;;;;;;;9.55;4.43;;;7.00;99.90;;;;;;5093470;28;20024;-77
2022/01/30 00:56:50;;;;;;;5.10;4.60;;;7.00;99.90;;;;;;5075882;28;20051;-77
2022/01/30 00:59:16;;;;;;;5.68;5.15;;;7.00;99.90;;;;;;5074747;28;20048;-76
2022/01/30 01:01:42;;;;;;;5.85;5.28;;;7.10;99.90;;;;;;5075824;28;20473;-77
2022/01/30 01:04:08;;;;;;;6.80;4.97;;;7.10;99.90;;;;;;5076018;28;20039;-76
2022/01/30 01:06:37;;;;;;;7.15;4.80;;;7.10;99.90;;;;;;5093022;28;20046;-76
2022/01/30 01:09:04;;;;;;;6.63;6.03;;;7.10;99.90;;;;;;5059308;28;20507;-77
2022/01/30 01:24:47;;;;;;;6.95;6.28;;;7.10;99.90;;;;;;5094256;28;20031;-77
2022/01/30 01:27:13;;;;;;;6.60;5.97;;;7.10;99.90;;;;;;5075558;28;20457;-82
2022/01/30 01:29:39;;;;;;;7.80;6.32;;;7.00;99.90;;;;;;5092738;28;20031;-76
2022/01/30 01:32:06;;;;;;;8.38;6.47;;;7.00;99.90;;;;;;5093472;28;20025;-76
2022/01/30 01:34:35;;;;;;;8.52;6.15;;;7.00;99.90;;;;;;5073794;28;20055;-77
2022/01/30 01:37:02;;;;;;;11.90;6.90;;;7.20;99.90;;;;;;5093683;28;20036;-76
2022/01/30 01:39:29;;;;;;;7.75;7.05;;;7.20;99.90;;;;;;5074659;28;20043;-77
2022/01/30 01:41:56;;;;;;;9.15;8.20;;;7.20;99.90;;;;;;5091946;28;20043;-76
2022/01/30 01:44:39;;;;;;;10.68;8.32;;;7.30;99.90;;;;;;5073813;28;20469;-77
2022/01/30 01:47:09;;;;;;;9.30;7.90;;;7.30;99.90;;;;;;5074607;28;20044;-78
2022/01/30 01:49:35;;;;;;;9.35;8.45;;;7.30;99.90;;;;;;5057472;28;20055;-76
2022/01/30 01:52:18;;;;;;;9.93;7.43;;;7.30;99.90;;;;;;5074718;28;20401;-77
2022/01/30 01:54:50;;;;;;;7.07;6.45;;;7.30;99.90;;;;;;5074865;28;20044;-76
2022/01/30 01:57:16;;;;;;;7.95;7.18;;;7.30;99.90;;;;;;5070573;28;20051;-77
2022/01/30 01:59:54;;;;;;;9.27;6.72;;;7.30;99.90;;;;;;5057636;28;20478;-77
2022/01/30 02:02:43;;;;;;;8.70;6.43;;;7.40;99.90;;;;;;5073032;28;20043;-76
2022/01/30 02:05:10;;;;;;;8.77;6.63;;;7.40;99.90;;;;;;5072564;28;20044;-77
2022/01/30 02:08:22;;;;;;;7.97;7.22;;;7.40;99.90;;;;;;5070741;28;20037;-77
2022/01/30 02:24:30;;;;;;;10.35;6.72;;;7.40;99.90;;;;;;5074793;28;20411;-78
2022/01/30 02:26:57;;;;;;;10.88;5.40;;;7.40;99.90;;;;;;5081931;28;20032;-78
2022/01/30 02:29:23;;;;;;;7.90;5.75;;;7.40;99.90;;;;;;5075271;28;20036;-78
2022/01/30 02:31:50;;;;;;;9.52;6.03;;;7.40;99.90;;;;;;5070916;28;20048;-78
2022/01/30 02:34:17;;;;;;;5.90;4.88;;;7.40;99.90;;;;;;5071213;28;20472;-78
2022/01/30 02:36:45;;;;;;;8.45;5.82;;;7.40;99.90;;;;;;5070205;28;20052;-76
2022/01/30 02:39:12;;;;;;;12.43;6.90;;;7.40;99.90;;;;;;5070818;28;20040;-77
2022/01/30 02:41:39;;;;;;;7.50;6.20;;;7.40;99.90;;;;;;5069807;28;20264;-77
2022/01/30 02:44:18;;;;;;;8.32;5.82;;;7.50;99.90;;;;;;5054115;28;20041;-78
2022/01/30 02:46:48;;;;;;;6.25;5.60;;;7.40;99.90;;;;;;5070268;28;20045;-77
2022/01/30 02:51:58;;;;;;;7.80;6.05;;;7.30;99.90;;;;;;5073039;28;20466;-77
2022/01/30 02:54:26;;;;;;;9.57;4.85;;;7.20;99.90;;;;;;5069954;28;20041;-78
2022/01/30 02:56:53;;;;;;;7.15;4.32;;;7.40;99.90;;;;;;5070569;28;20409;-78
2022/01/30 02:59:20;;;;;;;7.78;3.95;;;7.60;99.90;;;;;;5071770;28;20040;-83
2022/01/30 03:01:46;;;;;;;8.27;4.00;;;7.60;99.90;;;;;;5070050;28;20044;-79
2022/01/30 03:04:13;;;;;;;12.27;4.60;;;7.60;99.90;;;;;;5071456;28;20045;-78
2022/01/30 03:06:39;;;;;;;15.00;4.30;;;7.70;99.90;;;;;;5052633;28;20830;-78
2022/01/30 03:09:09;;;;;;;11.30;3.00;;;7.70;96.40;;;;;;5070127;28;20051;-79
2022/01/30 03:11:36;;;;;;;13.23;3.00;;;7.60;94.40;;;;;;5069569;28;20477;-78
2022/01/30 03:14:04;;;;;;;10.30;3.45;;;7.70;90.90;;;;;;5053630;28;20473;-77
2022/01/30 03:16:30;;;;;;;13.35;3.35;;;7.80;90.10;;;;;;5069313;28;20481;-79
2022/01/30 03:18:58;;;;;;;17.70;2.45;;;7.80;89.00;;;;;;5069883;28;20044;-78
2022/01/30 03:21:24;;;;;;;5.25;2.67;;;7.90;84.90;;;;;;5070864;28;20039;-79
2022/01/30 03:23:51;;;;;;;9.95;2.63;;;7.90;84.90;;;;;;5070109;28;20430;-78
2022/01/30 03:26:17;;;;;;;12.10;2.58;;;7.80;85.00;;;;;;5069627;28;20048;-78
2022/01/30 03:29:12;;;;;;;5.93;2.40;;;7.70;86.40;;;;;;5063318;28;20051;-79
2022/01/30 03:31:44;;;;;;;;;;;7.60;86.30;;;;;;5069819;28;20036;-78
2022/01/30 03:34:12;;;;;;;7.10;2.75;;;7.60;86.30;;;;;;5072355;28;20361;-78
2022/01/30 03:36:44;;;;;;;19.35;4.47;;;7.60;85.10;;;;;;5073055;28;20193;-78
2022/01/30 03:39:11;;;;;;;5.95;2.03;;;7.60;86.10;;;;;;5073705;28;20385;-76
2022/01/30 03:41:38;;;;;;;11.20;3.17;;;7.50;85.90;;;;;;5074842;28;20040;-77
2022/01/30 03:44:07;;;;;;;7.43;2.85;;;7.40;89.10;;;;;;5073472;28;20041;-77
2022/01/30 03:46:33;;;;;;;5.82;2.72;;;7.20;88.30;;;;;;5072537;28;20049;-78
2022/01/30 03:48:59;;;;;;;10.27;3.30;;;7.30;88.50;;;;;;5073176;28;20048;-80
2022/01/30 03:51:30;;;;;;;9.18;3.03;;;7.30;87.30;;;;;;5073832;28;20052;-80
2022/01/30 03:54:06;;;;;;;20.65;3.55;;;7.30;86.50;;;;;;5073573;28;20032;-81
2022/01/30 03:56:32;;;;;;;7.40;3.03;;;7.30;87.40;;;;;;5074624;28;20067;-76
2022/01/30 03:58:59;;;;;;;18.08;2.88;;;7.30;87.30;;;;;;5076875;28;20044;-76
2022/01/30 04:01:25;;;;;;;6.60;3.45;;;7.40;86.60;;;;;;5094662;28;20035;-82
2022/01/30 04:03:51;;;;;;;8.48;2.95;;;7.30;87.00;;;;;;5095149;28;20035;-76
2022/01/30 04:06:18;;;;;;;13.45;4.20;;;7.30;86.60;;;;;;5076886;28;20055;-77
2022/01/30 04:08:44;;;;;;;14.95;3.33;;;7.40;85.80;;;;;;5076001;28;20040;-76
2022/01/30 04:11:18;;;;;;;13.95;3.53;;;7.50;85.40;;;;;;5076810;28;20047;-78
2022/01/30 04:13:57;;;;;;;12.35;3.58;;;7.40;86.20;;;;;;5077136;28;20040;-77
2022/01/30 04:16:57;;;;;;;5.03;2.72;;;7.40;86.20;;;;;;5038995;28;20469;-77
2022/01/30 04:19:44;;;;;;;9.18;3.00;;;7.40;85.90;;;;;;5075961;28;20047;-77
2022/01/30 04:22:23;;;;;;;9.13;2.95;;;7.40;86.70;;;;;;5076852;28;20044;-77
2022/01/30 04:25:15;;;;;;;18.33;3.60;;;7.30;86.90;;;;;;5078574;28;20040;-77
2022/01/30 04:28:02;;;;;;;13.60;3.72;;;7.30;86.70;;;;;;5094491;28;20059;-78
2022/01/30 04:30:57;;;;;;;5.95;2.88;;;7.30;87.70;;;;;;5085472;28;20044;-77
2022/01/30 04:33:37;;;;;;;18.02;3.33;;;7.30;87.40;;;;;;5077113;28;20405;-77
2022/01/30 04:36:28;;;;;;;8.82;3.92;;;7.20;86.30;;;;;;5076018;28;20051;-78
2022/01/30 04:39:17;;;;;;;9.70;3.35;;;7.20;87.50;;;;;;5076214;28;20036;-79
2022/01/30 05:06:12;;;;;;;6.78;2.60;;;6.70;88.00;;;;;;5073455;28;20520;-78
2022/01/30 05:09:06;;;;;;;15.20;3.85;;;6.70;86.60;;;;;;5059456;28;20160;-77
2022/01/30 05:12:10;;;;;;;14.40;3.70;;;6.70;86.60;;;;;;5064888;28;20048;-78
2022/01/30 05:15:02;;;;;;;13.93;4.30;;;6.60;87.60;;;;;;5050067;28;20098;-78
2022/01/30 05:17:39;;;;;;;6.57;2.72;;;6.50;87.10;;;;;;5071076;28;20055;-79
2022/01/30 05:20:26;;;;;;;15.98;3.90;;;6.50;87.30;;;;;;5073606;28;20040;-79
2022/01/30 05:23:16;;;;;;;8.57;3.28;;;6.30;87.90;;;;;;5067525;28;20053;-77
2022/01/30 05:26:07;;;;;;;10.27;2.95;;;6.30;88.10;;;;;;5075379;28;20032;-78
2022/01/30 05:28:37;;;;;;;11.82;5.00;;;6.20;88.10;;;;;;5071370;28;20505;-79
2022/01/30 05:31:37;;;;;;;17.25;3.65;;;6.20;88.10;;;;;;5070800;28;20385;-79
2022/01/30 05:34:27;;;;;;;11.27;3.63;;;6.20;87.10;;;;;;5044303;28;20040;-79
2022/01/30 05:37:20;;;;;;;7.18;3.22;;;6.10;87.10;;;;;;5053469;28;20041;-78
2022/01/30 05:40:05;;;;;;;14.93;5.40;;;6.00;87.20;;;;;;5079672;28;20037;-77
2022/01/30 05:42:58;;;;;;;9.07;3.25;;;6.00;84.90;;;;;;5070696;28;20040;-78
2022/01/30 05:45:46;;;;;;;14.95;4.35;;;6.10;82.60;;;;;;5070599;28;20036;-79
2022/01/30 05:48:29;;;;;;;6.20;3.97;;;6.10;81.80;;;;;;5071285;28;20060;-82
2022/01/30 05:51:00;;;;;;;;;;;6.00;80.70;;;;;;5056153;28;20405;-78
2022/01/30 05:53:46;;;;;;;8.57;2.92;;;6.10;79.20;;;;;;5071354;28;19908;-79
2022/01/30 05:56:22;;;;;;;10.05;3.20;;;6.00;79.90;;;;;;5071233;28;20044;-80
2022/01/30 05:58:49;;;;;;;9.65;3.42;;;5.90;80.00;;;;;;5074001;28;20044;-80
2022/01/30 06:01:36;;;;;;;14.73;2.83;;;5.80;79.70;;;;;;5073754;28;20043;-79
2022/01/30 06:04:20;;;;;;;15.90;2.75;;;5.90;78.30;;;;;;5074534;28;20395;-79
2022/01/30 06:06:51;;;;;;;10.00;3.22;;;5.90;78.80;;;;;;5074041;28;20044;-78
2022/01/30 06:11:50;;;;;;;7.53;2.65;;;5.90;78.20;;;;;;5073842;28;20044;-78
2022/01/30 06:14:17;;;;;;;12.50;3.05;;;5.90;78.10;;;;;;5057887;28;20036;-79
2022/01/30 06:16:44;;;;;;;11.23;3.17;;;5.90;78.00;;;;;;5074736;28;20044;-79
2022/01/30 06:19:42;;;;;;;8.73;2.60;;;5.90;77.60;;;;;;5035184;28;20106;-79
2022/01/30 06:22:27;;;;;;;9.23;2.78;;;5.90;77.80;;;;;;5093136;28;20381;-79
2022/01/30 06:25:14;;;;;;;7.93;2.50;;;5.80;78.20;;;;;;5051438;28;20063;-79
2022/01/30 06:27:59;;;;;;;9.88;3.40;;;5.80;78.50;;;;;;5092641;28;20484;-78
2022/01/30 06:30:44;;;;;;;9.02;2.95;;;5.60;79.00;;;;;;5091960;28;20040;-79
2022/01/30 06:33:36;;;;;;;8.07;3.25;;;5.50;79.60;;;;;;5062442;28;20043;-79
2022/01/30 06:36:21;;;;;;;6.10;2.47;;;5.40;81.40;;;;;;5092965;28;20040;-78
2022/01/30 06:39:00;;;;;;;15.50;3.20;;;5.20;83.00;;;;;;5073808;28;20036;-78
2022/01/30 06:41:53;;;;;;;13.75;3.22;;;5.10;83.20;;;;;;5088032;28;20491;-78
2022/01/30 06:44:38;;;;;;;10.27;2.65;;;5.10;82.80;;;;;;5089948;28;20044;-79
2022/01/30 06:47:23;;;;;;;6.10;2.78;;;5.10;82.90;;;;;;5100262;28;20396;-81
2022/01/30 06:49:55;;;;;;;6.47;2.72;;;5.00;83.70;;;;;;5104161;28;20115;-79
2022/01/30 06:52:41;;;;;;;16.73;2.75;;;4.90;83.30;;;;;;5092664;28;20032;-80
2022/01/30 06:55:25;;;;;;;8.13;2.83;;;4.90;84.00;;;;;;5085157;28;20043;-79
2022/01/30 06:58:27;;;;;;;8.98;2.88;;;4.90;84.10;;;;;;5030206;28;20077;-79
2022/01/30 07:01:02;;;;;;;16.42;5.65;;;4.90;84.60;;;;;;5082900;28;20044;-80
2022/01/30 07:03:28;;;;;;;16.48;5.03;;;4.80;85.30;;;;;;5092171;28;20048;-79
2022/01/30 07:06:24;;;;;;;5.85;3.17;;;4.70;85.50;;;;;;5019894;28;20064;-79
2022/01/30 07:08:50;;;;;;;11.13;3.72;;;4.70;86.00;;;;;;5079058;28;20032;-79
2022/01/30 07:11:16;;;;;;;8.60;2.80;;;4.70;86.40;;;;;;5077986;28;20051;-79
2022/01/30 07:13:43;;;;;;;19.13;3.75;;;4.60;86.80;;;;;;5095341;28;20401;-82
2022/01/30 07:16:09;;;;;;;12.05;3.83;;;4.60;87.10;;;;;;5096253;28;20039;-79
2022/01/30 07:18:35;;;;;;;16.60;3.75;;;4.60;85.80;;;;;;5096443;28;20373;-86
2022/01/30 07:21:07;;;;;;;10.60;3.72;;;4.70;86.50;;;;;;5077839;28;20038;-79
2022/01/30 07:23:33;;;;;;;10.63;3.17;;;4.70;85.60;;;;;;5079411;28;20038;-78
2022/01/30 07:26:00;;;;;;;11.43;3.30;;;4.70;85.80;;;;;;5095428;28;20028;-79
2022/01/30 07:28:26;;;;;;;13.77;3.60;;;4.70;84.50;;;;;;5096475;28;20054;-83
2022/01/30 07:30:52;;;;;;;13.35;3.55;;;4.90;84.00;;;;;;5095476;28;20043;-83
2022/01/30 07:33:18;;;;;;;12.32;3.58;;;5.00;82.80;;;;;;5096048;28;20036;-82
2022/01/30 07:35:45;;;;;;;8.75;2.97;;;5.10;83.00;;;;;;5093825;28;20465;-82
2022/01/30 07:38:12;;;;;;;6.03;2.90;;;5.10;83.00;;;;;;5062003;28;20067;-82
2022/01/30 07:40:39;;;;;;;15.00;3.47;;;5.10;83.50;;;;;;5095803;28;20042;-80
2022/01/30 07:43:05;;;;;;;6.63;2.55;;;5.10;83.00;;;;;;5093286;28;23004;-84
2022/01/30 07:45:33;;;;;;;10.25;3.53;;;5.10;81.70;;;;;;5077557;28;20480;-83
2022/01/30 07:47:59;;;;;;;13.00;4.03;;;5.20;81.40;;;;;;5095901;28;20043;-82
2022/01/30 07:50:25;;;;;;;8.32;3.05;;;5.30;82.20;;;;;;5094524;28;20032;-82
2022/01/30 07:52:52;;;;;;;17.27;3.92;;;5.30;81.80;;;;;;5095733;28;20024;-83
2022/01/30 07:55:19;;;;;;;6.07;3.10;;;5.40;80.50;;;;;;5077673;28;20040;-83
2022/01/30 07:57:46;;;;;;;9.27;3.83;;;5.60;79.90;;;;;;5094457;28;20044;-83
2022/01/30 08:00:13;;;;;;;16.65;4.18;;;5.70;79.60;;;;;;5080506;28;20040;-82
2022/01/30 08:02:40;;;;;;;12.23;4.55;;;5.80;79.80;;;;;;5094769;28;20040;-80
2022/01/30 08:05:07;;;;;;;7.85;3.35;;;5.80;78.60;;;;;;5093737;28;20484;-82
2022/01/30 08:07:33;;;;;;;18.58;4.38;;;5.80;79.20;;;;;;5095818;28;20036;-84
2022/01/30 08:09:59;;;;;;;15.15;3.95;;;5.80;78.50;;;;;;5078339;28;20028;-83
2022/01/30 08:12:25;;;;;;;10.98;3.58;;;5.90;77.80;;;;;;5095464;28;20381;-83
2022/01/30 08:14:52;;;;;;;11.63;3.20;;;5.90;78.80;;;;;;5094390;28;20024;-83
2022/01/30 08:17:22;;;;;;;11.20;3.20;;;5.90;78.10;;;;;;5077296;28;20069;-83
2022/01/30 08:19:51;;;;;;;7.30;2.85;;;5.90;77.60;;;;;;5095101;28;20531;-83
2022/01/30 08:22:19;;;;;;;8.45;2.97;;;5.90;77.20;;;;;;5095519;28;20491;-85
2022/01/30 08:24:45;;;;;;;12.73;2.47;;;5.90;75.90;;;;;;5094908;28;20031;-83
2022/01/30 08:27:11;;;;;;;8.60;3.40;;;5.90;76.20;;;;;;5094867;28;20036;-83
2022/01/30 08:29:38;;;;;;;10.45;3.75;;;5.90;76.80;;;;;;5095066;28;20031;-83
2022/01/30 08:32:05;;;;;;;8.60;3.53;;;5.90;77.20;;;;;;5075672;28;20044;-82
2022/01/30 08:34:31;;;;;;;9.70;3.83;;;6.00;76.40;;;;;;5094187;28;20035;-82
2022/01/30 08:36:57;;;;;;;10.77;3.45;;;6.10;75.60;;;;;;5093572;28;20036;-85
2022/01/30 08:39:23;;;;;;;14.68;3.58;;;6.20;75.80;;;;;;5094790;28;20036;-83
2022/01/30 08:41:49;;;;;;;8.02;2.92;;;6.20;76.20;;;;;;5093605;28;20032;-82
2022/01/30 08:44:16;;;;;;;8.90;3.35;;;6.10;75.90;;;;;;5095097;28;20047;-86
2022/01/30 08:46:42;;;;;;;11.25;3.20;;;6.10;75.60;;;;;;5093998;28;20035;-80
2022/01/30 08:49:08;;;;;;;9.23;3.08;;;6.10;75.70;;;;;;5094573;28;20036;-84
2022/01/30 08:51:34;;;;;;;11.80;3.65;;;6.20;75.10;;;;;;5097139;28;20059;-83
2022/01/30 08:54:00;;;;;;;7.45;2.63;;;6.40;75.00;;;;;;5093521;28;20115;-85
2022/01/30 08:56:28;;;;;;;7.97;3.17;;;6.60;75.10;;;;;;5075686;28;20044;-84
2022/01/30 08:58:54;;;;;;;9.20;3.35;;;6.70;74.70;;;;;;5093498;28;20040;-84
2022/01/30 09:01:21;;;;;;;12.70;3.58;;;6.70;74.00;;;;;;5094784;28;20039;-83
2022/01/30 09:03:47;;;;;;;9.23;2.60;;;6.80;72.30;;;;;;5093287;28;20046;-85
2022/01/30 09:06:13;;;;;;;18.38;3.72;;;6.80;72.60;;;;;;5093231;28;20032;-85
2022/01/30 09:08:39;;;;;;;18.42;3.42;;;6.70;72.30;;;;;;5094285;28;20028;-86
2022/01/30 09:11:06;;;;;;;16.17;3.10;;;6.70;72.70;;;;;;5093387;28;20035;-85
2022/01/30 09:13:32;;;;;;;8.82;2.92;;;6.60;73.20;;;;;;5093820;28;20029;-83
2022/01/30 09:15:59;;;;;;;10.63;2.70;;;6.60;73.00;;;;;;5093063;28;20028;-84
2022/01/30 09:18:26;;;;;;;9.90;2.67;;;6.60;72.80;;;;;;5093589;28;20051;-84
2022/01/30 09:20:53;;;;;;;9.73;2.03;;;6.60;72.80;;;;;;5093335;28;20028;-83
2022/01/30 09:23:20;;;;;;;14.98;2.67;;;6.70;73.60;;;;;;5093433;28;20039;-83
2022/01/30 09:25:47;;;;;;;5.32;2.30;;;6.70;71.30;;;;;;5092677;28;20035;-83
2022/01/30 09:28:14;;;;;;;6.28;2.42;;;6.80;71.80;;;;;;5093222;28;20462;-83
2022/01/30 09:30:40;;;;;;;11.00;2.25;;;6.80;72.60;;;;;;5074527;28;20051;-85
2022/01/30 09:33:07;;;;;;;5.55;2.13;;;6.90;71.40;;;;;;5092483;28;20032;-84
2022/01/30 09:35:33;;;;;;;11.60;2.10;;;7.00;72.10;;;;;;5092783;28;20040;-82
2022/01/30 09:37:59;;;;;;;5.47;2.50;;;7.10;70.00;;;;;;5092682;28;20035;-84
2022/01/30 09:40:25;;;;;;;13.30;2.40;;;7.10;71.00;;;;;;5093397;28;20367;-83
2022/01/30 09:42:52;;;;;;;19.00;3.55;;;7.20;70.10;;;;;;5096223;28;20042;-84
2022/01/30 09:45:20;;;;;;;7.00;1.85;;;7.30;69.70;;;;;;5093480;28;20380;-82
2022/01/30 09:47:47;;;;;;;9.40;2.65;;;7.20;69.80;;;;;;5091401;28;20511;-81
2022/01/30 09:50:16;;;;;;;8.93;2.15;;;7.20;69.70;;;;;;5093509;28;20058;-83
2022/01/30 09:52:42;;;;;;;7.72;2.25;;;7.20;69.80;;;;;;5093313;28;20028;-83
2022/01/30 09:55:09;;;;;;;9.48;2.47;;;7.40;69.40;;;;;;5092715;28;20401;-84
2022/01/30 09:57:36;;;;;;;11.88;1.90;;;7.60;68.90;;;;;;5074549;28;20048;-83
2022/01/30 10:00:06;;;;;;;10.93;2.45;;;7.50;68.40;;;;;;5092248;28;20058;-82
2022/01/30 10:02:34;;;;;;;6.53;2.15;;;7.40;69.30;;;;;;5099574;28;20059;-83
2022/01/30 10:05:00;;;;;;;7.03;2.35;;;7.50;69.80;;;;;;5092575;28;20039;-82
2022/01/30 10:07:49;;;;;;;11.48;2.05;;;7.60;67.10;;;;;;5093254;28;20032;-83
2022/01/30 10:10:17;;;;;;;4.57;1.75;;;7.50;68.30;;;;;;5093026;28;20069;-82
2022/01/30 10:13:12;;;;;;;10.05;2.67;;;7.70;68.80;;;;;;5092966;28;20036;-88
2022/01/30 10:15:57;;;;;;;5.35;2.08;;;7.60;68.50;;;;;;5092944;28;20032;-81
2022/01/30 10:18:26;;;;;;;10.98;2.35;;;7.40;67.90;;;;;;5093613;28;20040;-84
2022/01/30 10:20:53;;;;;;;7.05;2.63;;;7.40;69.40;;;;;;5093273;28;20032;-84
2022/01/30 10:23:29;;;;;;;6.10;1.80;;;7.30;67.80;;;;;;5093237;28;20393;-85
2022/01/30 10:25:56;;;;;;;9.60;1.88;;;7.30;68.10;;;;;;5092167;28;20059;-84
2022/01/30 10:28:32;;;;;;;4.97;2.33;;;7.20;67.50;;;;;;5092840;28;20036;-84
2022/01/30 10:31:02;;;;;;;9.25;1.90;;;7.20;67.60;;;;;;5092398;28;20036;-83
2022/01/30 10:33:40;;;;;;;8.43;2.33;;;7.10;67.20;;;;;;5093022;28;20039;-84
2022/01/30 10:36:08;;;;;;;8.07;2.08;;;6.90;67.90;;;;;;5094532;28;20039;-78
2022/01/30 10:38:39;;;;;;;5.45;1.75;;;6.90;67.00;;;;;;5092694;28;20047;-82
2022/01/30 10:41:15;;;;;;;5.95;2.33;;;7.00;67.60;;;;;;5092586;28;20032;-83
2022/01/30 10:44:06;;;;;;;6.72;2.13;;;7.00;68.40;;;;;;5092181;28;20035;-84
2022/01/30 10:46:52;;;;;;;3.83;1.80;;;7.20;68.40;;;;;;5088095;28;20059;-83
2022/01/30 10:49:21;;;;;;;7.13;2.20;;;7.10;66.80;;;;;;5092757;28;20063;-83
2022/01/30 10:51:59;;;;;;;6.10;2.20;;;7.10;65.10;;;;;;5092900;28;20040;-80
2022/01/30 10:54:32;;;;;;;3.95;1.40;;;7.10;66.30;;;;;;5092576;28;20036;-86
2022/01/30 10:57:07;;;;;;;5.97;2.38;;;7.20;66.20;;;;;;5092026;28;20063;-82
2022/01/30 10:59:35;;;;;;;7.32;2.00;;;7.40;65.00;;;;;;5092971;28;20035;-85
2022/01/30 11:02:12;;;;;;;14.05;2.85;;;7.50;65.40;;;;;;5092780;28;20028;-85
2022/01/30 11:04:39;;;;;;;4.05;1.58;;;7.60;66.60;;;;;;5093026;28;20031;-82
2022/01/30 11:07:06;;;;;;;5.13;1.73;;;7.60;64.60;;;;;;5092963;28;20090;-81
2022/01/30 11:09:47;;;;;;;7.07;1.77;;;7.50;63.30;;;;;;5098783;28;20044;-86
2022/01/30 11:12:15;;;;;;;8.63;1.88;;;7.50;64.50;;;;;;5098114;28;20032;-85
2022/01/30 11:17:18;;;;;;;5.05;2.05;;;7.60;64.60;;;;;;5091999;28;20044;-88
2022/01/30 11:19:51;;;;;;;6.13;1.70;;;7.80;64.20;;;;;;5074675;28;20453;-80
2022/01/30 11:22:20;;;;;;;6.22;1.80;;;7.90;63.90;;;;;;5092836;28;20039;-87
2022/01/30 11:25:07;;;;;;;6.97;1.65;;;7.80;63.10;;;;;;5092641;28;20024;-85
2022/01/30 11:27:34;;;;;;;4.85;1.80;;;7.80;64.10;;;;;;5096162;28;20040;-85
2022/01/30 11:30:02;;;;;;;5.90;2.15;;;7.80;63.70;;;;;;5091702;28;20032;-85
2022/01/30 11:32:28;;;;;;;4.78;1.95;;;7.80;62.90;;;;;;5092359;28;20039;-82
2022/01/30 11:34:56;;;;;;;9.90;2.00;;;7.90;63.70;;;;;;5092607;28;20020;-86
2022/01/30 11:37:27;;;;;;;6.07;1.60;;;8.00;63.70;;;;;;5092621;28;20032;-83
2022/01/30 11:39:54;;;;;;;11.18;1.83;;;8.00;63.60;;;;;;5092342;28;20039;-85
2022/01/30 11:42:26;;;;;;;5.85;1.75;;;8.00;63.80;;;;;;5093232;28;20035;-83
2022/01/30 11:45:03;;;;;;;6.13;1.77;;;7.90;62.70;;;;;;5074204;28;20364;-85
2022/01/30 11:47:49;;;;;;;7.20;1.90;;;7.90;62.30;;;;;;5075529;28;20048;-81
2022/01/30 11:50:24;;;;;;;9.88;1.98;;;8.00;62.00;;;;;;5092509;28;20039;-85
2022/01/30 11:52:55;;;;;;;6.30;1.90;;;8.10;63.40;;;;;;5091742;28;20020;-80
2022/01/30 11:55:41;;;;;;;9.18;2.75;;;8.00;63.10;;;;;;5095269;28;20024;-87
2022/01/30 11:58:30;;;;;;;9.52;1.60;;;8.00;63.80;;;;;;5095351;28;20457;-85
2022/01/30 12:01:00;;;;;;;5.38;1.67;;;7.90;63.40;;;;;;5095149;28;20032;-83
2022/01/30 12:03:31;;;;;;;2.70;1.80;;;7.80;63.30;;;;;;5095782;28;20031;-85
2022/01/30 12:06:20;;;;;;;6.90;1.63;;;7.70;64.10;;;;;;5095428;28;20028;-86
2022/01/30 12:08:54;;;;;;;6.45;2.20;;;7.80;63.60;;;;;;5095927;28;20028;-84
2022/01/30 12:11:49;;;;;;;4.00;1.73;;;7.70;62.80;;;;;;5095690;28;20376;-86
2022/01/30 12:14:21;;;;;;;7.10;1.52;;;7.80;63.20;;;;;;5094861;28;20406;-86
2022/01/30 12:16:48;;;;;;;5.22;1.40;;;7.90;62.70;;;;;;5096034;28;20028;-87
2022/01/30 12:19:42;;;;;;;4.43;1.70;;;7.90;63.30;;;;;;5099307;28;20024;-84
2022/01/30 12:22:18;;;;;;;4.20;1.70;;;7.90;63.60;;;;;;5094910;28;20032;-80
2022/01/30 12:24:49;;;;;;;6.22;2.10;;;7.90;64.80;;;;;;5077262;28;20067;-84
2022/01/30 12:27:16;;;;;;;6.07;1.95;;;7.90;64.30;;;;;;5093919;28;20031;-87
2022/01/30 12:29:46;;;;;;;6.93;1.92;;;7.80;64.00;;;;;;5094489;28;20465;-86
2022/01/30 12:32:21;;;;;;;6.80;2.17;;;7.70;62.70;;;;;;5094762;28;20036;-86
2022/01/30 12:35:03;;;;;;;6.00;2.45;;;7.60;63.10;;;;;;5077698;28;20032;-90
2022/01/30 12:37:33;;;;;;;8.30;2.17;;;7.80;63.80;;;;;;5096171;28;20500;-86
2022/01/30 12:40:21;;;;;;;10.27;2.45;;;7.90;63.50;;;;;;5095253;28;20040;-90
2022/01/30 12:42:48;;;;;;;20.17;2.92;;;7.80;64.10;;;;;;5095694;28;20054;-89
2022/01/30 12:45:15;;;;;;;8.25;2.10;;;7.70;64.10;;;;;;5096122;28;20036;-89
2022/01/30 12:47:45;;;;;;;7.85;2.67;;;7.80;64.00;;;;;;5097311;28;20028;-87
2022/01/30 12:50:12;;;;;;;7.90;2.75;;;7.80;63.90;;;;;;5095471;28;20028;-88
2022/01/30 12:52:39;;;;;;;3.22;1.83;;;7.90;64.80;;;;;;5095832;28;20043;-86
2022/01/30 12:55:11;;;;;;;9.73;2.35;;;8.10;64.20;;;;;;5095441;28;20024;-86
2022/01/30 12:57:40;;;;;;;4.18;1.60;;;8.10;63.20;;;;;;5096396;28;20044;-87
2022/01/30 13:00:09;;;;;;;5.82;2.63;;;7.90;62.70;;;;;;5097567;28;20442;-86
2022/01/30 13:02:38;;;;;;;13.90;2.63;;;7.80;62.80;;;;;;5099989;28;20032;-89
2022/01/30 13:05:10;;;;;;;6.25;2.30;;;7.90;63.90;;;;;;5099769;28;20039;-86
2022/01/30 13:07:37;;;;;;;7.03;1.85;;;7.90;62.10;;;;;;5095996;28;20032;-87
2022/01/30 13:10:09;;;;;;;5.15;2.72;;;7.80;62.50;;;;;;5101144;28;20032;-85
2022/01/30 13:12:36;;;;;;;5.40;2.00;;;7.70;62.40;;;;;;5096211;28;20039;-89
2022/01/30 13:15:09;;;;;;;14.07;2.95;;;7.70;62.80;;;;;;5093306;28;20063;-83
2022/01/30 13:17:36;;;;;;;8.57;2.90;;;7.80;63.00;;;;;;5096155;28;20102;-84
2022/01/30 13:20:06;;;;;;;5.72;2.53;;;7.80;63.40;;;;;;5094326;28;20043;-86
2022/01/30 13:22:36;;;;;;;10.68;2.42;;;7.80;62.60;;;;;;5094647;28;20051;-87
2022/01/30 13:25:08;;;;;;;8.35;2.72;;;7.80;63.50;;;;;;5094043;28;20388;-88
2022/01/30 13:27:39;;;;;;;12.52;2.55;;;7.70;63.70;;;;;;5095052;28;20031;-86
2022/01/30 13:30:06;;;;;;;5.88;3.00;;;7.70;63.20;;;;;;5095894;28;20048;-85
2022/01/30 13:32:36;;;;;;;5.65;2.03;;;7.60;63.80;;;;;;5077835;28;20479;-87
2022/01/30 13:35:03;;;;;;;7.82;3.25;;;7.60;64.00;;;;;;5096645;28;20035;-88
2022/01/30 13:37:36;;;;;;;8.73;3.20;;;7.70;64.20;;;;;;5096614;28;20047;-88
2022/01/30 13:40:14;;;;;;;16.13;2.60;;;7.60;64.50;;;;;;5076502;28;20036;-87
2022/01/30 13:43:05;;;;;;;17.98;2.28;;;7.60;64.00;;;;;;5096154;28;20036;-85
2022/01/30 13:48:21;;;;;;;6.82;3.45;;;7.80;64.10;;;;;;5096340;28;20040;-84
2022/01/30 13:51:03;;;;;;;7.97;3.05;;;7.80;63.50;;;;;;5098221;28;20039;-89
2022/01/30 13:53:31;;;;;;;11.80;2.95;;;7.70;64.40;;;;;;5097123;28;20032;-85
2022/01/30 13:56:10;;;;;;;8.90;2.45;;;7.80;63.60;;;;;;5094988;28;20032;-90
2022/01/30 13:58:39;;;;;;;17.45;2.75;;;7.70;64.00;;;;;;5095434;28;20055;-87
2022/01/30 14:01:10;;;;;;;6.55;2.15;;;7.70;64.10;;;;;;5098603;28;20048;-87
2022/01/30 14:03:38;;;;;;;5.32;2.45;;;7.70;64.10;;;;;;5077255;28;20031;-87
2022/01/30 14:06:16;;;;;;;5.32;2.00;;;7.70;64.10;;;;;;5096044;28;20032;-89
2022/01/30 14:08:52;;;;;;;8.85;2.38;;;7.70;64.00;;;;;;5096374;28;20043;-89
2022/01/30 14:11:31;;;;;;;5.10;2.47;;;7.70;64.10;;;;;;5098409;28;20294;-88
2022/01/30 14:14:13;;;;;;;5.85;2.20;;;7.70;64.60;;;;;;5099471;28;20039;-87
2022/01/30 14:16:44;;;;;;;10.05;3.00;;;7.70;65.00;;;;;;5099265;28;20039;-87
2022/01/30 14:19:50;;;;;;;7.45;2.65;;;7.60;64.30;;;;;;5100922;28;20044;-86
2022/01/30 14:22:25;;;;;;;6.85;2.28;;;7.60;65.30;;;;;;5089632;28;20044;-90
2022/01/30 14:24:54;;;;;;;4.18;2.05;;;7.60;64.30;;;;;;5103783;28;20035;-88
2022/01/30 14:27:22;;;;;;;9.38;2.55;;;7.60;64.30;;;;;;5105176;28;20040;-89